Sakai-Minato, Japan
Current Conditions -  °F | °C
As of 8:00 AM on Monday 22 Dec 2014 (Local Time) from RJOH Reporting Station
Snow Showers Snow Showers  
Wind Chill: 24°   Ceiling: 4500
Heat Index: 36°   Visibility: 6mi
Dew Point: 21°   Wind: 22mph
Humidity: 56%   Direction: 260°W
Pressure: 30.06"   Gusts: 33mph
Location:  35.53°N, 133.24°E
Report Text: RJOH 212300Z 26019G29KT 9999 -SHSN FEW020 BKN045 BKN060 02/M06 Q1018
Loading
Personal Weather Stations






























Interactive Weather Map New forecast layout! Learn more

10-Day Weather Forecast

Advertisements
Track Severe Weather on mobile